createdAt,value
2018-09-15T00:01:28.211Z,6.70
2018-09-15T00:03:56.568Z,6.57
2018-09-15T00:06:24.918Z,6.70
2018-09-15T00:08:53.264Z,6.60
2018-09-15T00:11:21.640Z,6.27
2018-09-15T00:13:49.981Z,6.73
2018-09-15T00:16:18.353Z,6.80
2018-09-15T00:18:46.682Z,6.90
2018-09-15T00:21:15.095Z,6.90
2018-09-15T00:23:43.432Z,6.83
2018-09-15T00:26:11.813Z,7.57
2018-09-15T00:28:40.158Z,8.20
2018-09-15T00:31:08.500Z,8.93
2018-09-15T00:33:36.852Z,9.27
2018-09-15T00:36:05.236Z,10.13
2018-09-15T00:38:33.583Z,9.50
2018-09-15T00:41:01.956Z,9.87
2018-09-15T00:43:30.307Z,9.30
2018-09-15T00:45:58.672Z,9.90
2018-09-15T00:48:27.006Z,9.23
2018-09-15T00:50:55.372Z,10.13
2018-09-15T00:53:23.698Z,9.63
2018-09-15T00:55:52.051Z,9.50
2018-09-15T00:58:20.382Z,9.93
2018-09-15T01:00:49.304Z,8.90
2018-09-15T01:03:17.627Z,9.97
2018-09-15T01:05:45.979Z,9.47
2018-09-15T01:08:14.318Z,9.23
2018-09-15T01:10:42.688Z,8.87
2018-09-15T01:13:11.027Z,9.60
2018-09-15T01:15:39.375Z,9.43
2018-09-15T01:18:07.734Z,9.20
2018-09-15T01:20:36.096Z,8.97
2018-09-15T01:23:04.837Z,8.93
2018-09-15T01:25:33.216Z,8.77
2018-09-15T01:28:01.575Z,8.10
2018-09-15T01:30:29.937Z,8.03
2018-09-15T01:32:58.291Z,8.00
2018-09-15T01:35:26.637Z,7.10
2018-09-15T01:37:55.035Z,7.07
2018-09-15T01:40:23.370Z,6.80
2018-09-15T01:42:51.719Z,7.30
2018-09-15T01:45:20.080Z,6.77
2018-09-15T01:47:48.427Z,7.23
2018-09-15T01:50:16.807Z,7.80
2018-09-15T01:52:45.155Z,7.60
2018-09-15T01:55:13.496Z,7.40
2018-09-15T01:57:41.893Z,7.80
2018-09-15T02:00:10.248Z,8.43
2018-09-15T02:02:38.811Z,8.50
2018-09-15T02:05:07.255Z,9.13
2018-09-15T02:07:37.463Z,9.37
2018-09-15T02:10:05.868Z,7.87
2018-09-15T02:12:34.265Z,9.43
2018-09-15T02:15:02.623Z,9.27
2018-09-15T02:17:30.995Z,9.47
2018-09-15T02:19:59.336Z,10.53
2018-09-15T02:22:27.729Z,9.40
2018-09-15T02:24:56.172Z,9.50
2018-09-15T02:27:24.524Z,10.03
2018-09-15T02:29:52.909Z,10.20
2018-09-15T02:32:21.250Z,9.33
2018-09-15T02:34:49.643Z,10.27
2018-09-15T02:37:17.969Z,10.03
2018-09-15T02:39:46.327Z,9.73
2018-09-15T02:42:14.688Z,10.00
2018-09-15T02:44:43.152Z,9.43
2018-09-15T02:47:11.590Z,9.30
2018-09-15T02:49:39.998Z,8.83
2018-09-15T02:52:08.385Z,8.07
2018-09-15T02:54:36.867Z,8.30
2018-09-15T02:57:05.488Z,8.93
2018-09-15T02:59:33.908Z,8.63
2018-09-15T03:02:02.249Z,8.20
2018-09-15T03:04:30.620Z,7.43
2018-09-15T03:06:58.972Z,7.43
2018-09-15T03:09:27.333Z,7.60
2018-09-15T03:11:55.693Z,7.63
2018-09-15T03:14:24.059Z,7.50
2018-09-15T03:16:52.391Z,6.87
2018-09-15T03:19:20.760Z,7.17
2018-09-15T03:21:49.083Z,6.77
2018-09-15T03:24:17.455Z,5.93
2018-09-15T03:26:46.094Z,6.00
2018-09-15T03:29:14.486Z,5.83
2018-09-15T03:31:42.839Z,5.27
2018-09-15T03:34:11.204Z,5.53
2018-09-15T03:36:39.544Z,5.60
2018-09-15T03:39:09.682Z,5.10
2018-09-15T03:41:38.101Z,4.93
2018-09-15T03:44:06.383Z,5.13
2018-09-15T03:46:34.723Z,5.57
2018-09-15T03:49:03.251Z,4.63
2018-09-15T03:51:31.564Z,4.60
2018-09-15T03:53:59.900Z,4.77
2018-09-15T03:56:28.251Z,4.53
2018-09-15T03:58:56.581Z,4.43
2018-09-15T04:01:24.982Z,3.90
2018-09-15T04:03:53.283Z,4.23
2018-09-15T04:06:21.608Z,4.50
2018-09-15T04:08:49.941Z,4.60
2018-09-15T04:11:18.299Z,4.43
2018-09-15T04:13:46.659Z,4.23
2018-09-15T04:16:14.990Z,4.20
2018-09-15T04:18:43.326Z,4.00
2018-09-15T04:21:11.672Z,4.30
2018-09-15T04:23:39.996Z,4.50
2018-09-15T04:26:08.580Z,4.10
2018-09-15T04:28:37.035Z,4.53
2018-09-15T04:31:05.405Z,4.80
2018-09-15T04:33:33.737Z,4.87
2018-09-15T04:36:02.093Z,4.67
2018-09-15T04:38:30.431Z,4.83
2018-09-15T04:40:58.772Z,5.27
2018-09-15T04:43:27.119Z,4.93
2018-09-15T04:45:55.452Z,4.50
2018-09-15T04:48:23.768Z,4.77
2018-09-15T04:50:52.183Z,5.57
2018-09-15T04:53:20.558Z,4.73
2018-09-15T04:55:48.904Z,5.03
2018-09-15T04:58:17.275Z,5.03
2018-09-15T05:00:45.640Z,5.03
2018-09-15T05:03:13.984Z,5.27
2018-09-15T05:05:42.334Z,5.17
2018-09-15T05:08:10.685Z,5.40
2018-09-15T05:10:39.022Z,5.27
2018-09-15T05:13:07.379Z,5.80
2018-09-15T05:15:35.702Z,5.90
2018-09-15T05:18:04.056Z,5.73
2018-09-15T05:20:32.384Z,5.87
2018-09-15T05:23:00.759Z,5.73
2018-09-15T05:25:29.094Z,6.57
2018-09-15T05:27:57.556Z,6.00
2018-09-15T05:30:26.133Z,6.97
2018-09-15T05:32:54.462Z,6.60
2018-09-15T05:35:22.784Z,6.53
2018-09-15T05:37:51.116Z,6.90
2018-09-15T05:40:19.434Z,6.77
2018-09-15T05:42:47.820Z,6.73
2018-09-15T05:45:16.140Z,7.17
2018-09-15T05:47:44.485Z,6.77
2018-09-15T05:50:12.801Z,7.30
2018-09-15T05:52:41.150Z,6.97
2018-09-15T05:55:09.456Z,7.43
2018-09-15T05:57:37.787Z,7.43
2018-09-15T06:00:06.153Z,6.93
2018-09-15T06:02:34.561Z,7.07
2018-09-15T06:05:03.000Z,7.30
2018-09-15T06:07:31.347Z,7.23
2018-09-15T06:09:59.697Z,7.20
2018-09-15T06:12:28.397Z,7.23
2018-09-15T06:14:56.732Z,7.67
2018-09-15T06:17:25.074Z,7.47
2018-09-15T06:19:54.690Z,7.73
2018-09-15T06:22:24.199Z,7.47
2018-09-15T06:24:52.533Z,8.10
2018-09-15T06:27:20.865Z,7.40
2018-09-15T06:29:49.191Z,7.80
2018-09-15T06:32:17.540Z,7.80
2018-09-15T06:34:45.843Z,7.47
2018-09-15T06:37:14.227Z,7.53
2018-09-15T06:39:42.592Z,7.73
2018-09-15T06:42:10.921Z,7.90
2018-09-15T06:44:39.264Z,8.60
2018-09-15T06:47:07.618Z,8.13
2018-09-15T06:49:35.950Z,7.87
2018-09-15T06:52:04.294Z,8.00
2018-09-15T06:54:32.796Z,8.23
2018-09-15T06:57:01.206Z,7.73
2018-09-15T06:59:29.591Z,8.17
2018-09-15T07:01:57.930Z,8.20
2018-09-15T07:04:26.272Z,8.07
2018-09-15T07:06:54.597Z,8.37
2018-09-15T07:09:22.946Z,8.00
2018-09-15T07:11:51.296Z,8.77
2018-09-15T07:14:19.627Z,7.70
2018-09-15T07:16:47.993Z,8.17
2018-09-15T07:19:16.360Z,8.07
2018-09-15T07:21:44.698Z,7.93
2018-09-15T07:24:13.044Z,7.87
2018-09-15T07:26:41.566Z,8.43
2018-09-15T07:29:09.895Z,7.87
2018-09-15T07:31:38.276Z,7.57
2018-09-15T07:34:06.859Z,7.60
2018-09-15T07:36:35.186Z,7.27
2018-09-15T07:39:04.475Z,7.40
2018-09-15T07:41:32.794Z,7.57
2018-09-15T07:44:01.147Z,7.73
2018-09-15T07:46:29.480Z,7.43
2018-09-15T07:48:57.805Z,7.67
2018-09-15T07:51:26.176Z,7.97
2018-09-15T07:53:54.643Z,7.40
2018-09-15T07:56:23.187Z,7.67
2018-09-15T07:58:51.536Z,7.20
2018-09-15T08:01:19.858Z,6.80
2018-09-15T08:03:48.256Z,7.23
2018-09-15T08:06:16.568Z,6.37
2018-09-15T08:08:44.931Z,6.43
2018-09-15T08:11:13.273Z,6.40
2018-09-15T08:13:41.612Z,6.00
2018-09-15T08:16:09.938Z,6.33
2018-09-15T08:18:38.282Z,6.77
2018-09-15T08:21:06.615Z,6.23
2018-09-15T08:23:35.010Z,6.50
2018-09-15T08:26:03.323Z,6.03
2018-09-15T08:28:31.719Z,5.80
2018-09-15T08:31:00.051Z,5.87
2018-09-15T08:33:28.453Z,6.00
2018-09-15T08:35:56.981Z,5.57
2018-09-15T08:38:25.436Z,5.40
2018-09-15T08:40:53.741Z,5.07
2018-09-15T08:43:22.103Z,5.17
2018-09-15T08:45:52.183Z,5.17
2018-09-15T08:48:20.533Z,4.70
2018-09-15T08:50:48.873Z,5.17
2018-09-15T08:53:17.219Z,4.83
2018-09-15T08:55:45.651Z,5.13
2018-09-15T08:58:14.411Z,5.30
2018-09-15T09:00:42.777Z,4.87
2018-09-15T09:03:11.184Z,5.30
2018-09-15T09:05:39.543Z,5.47
2018-09-15T09:08:07.871Z,5.60
2018-09-15T09:10:36.338Z,4.60
2018-09-15T09:13:04.739Z,5.03
2018-09-15T09:15:33.084Z,4.80
2018-09-15T09:18:01.416Z,4.30
2018-09-15T09:20:29.741Z,4.90
2018-09-15T09:22:58.067Z,4.70
2018-09-15T09:25:26.415Z,4.30
2018-09-15T09:27:54.743Z,4.30
2018-09-15T09:30:23.088Z,4.50
2018-09-15T09:32:51.445Z,4.73
2018-09-15T09:35:19.789Z,4.77
2018-09-15T09:37:48.130Z,4.97
2018-09-15T09:40:16.474Z,5.90
2018-09-15T09:42:44.829Z,4.80
2018-09-15T09:45:13.197Z,5.40
2018-09-15T09:47:41.566Z,5.70
2018-09-15T09:50:09.872Z,5.47
2018-09-15T09:52:38.210Z,5.33
2018-09-15T09:55:06.629Z,5.53
2018-09-15T09:57:34.956Z,5.10
2018-09-15T10:00:03.362Z,5.50
2018-09-15T10:02:31.716Z,5.67
2018-09-15T10:05:00.150Z,5.97
2018-09-15T10:07:28.451Z,5.57
2018-09-15T10:09:56.795Z,6.17
2018-09-15T10:12:25.116Z,5.43
2018-09-15T10:14:53.454Z,5.97
2018-09-15T10:17:21.788Z,6.50
2018-09-15T10:19:50.130Z,6.20
2018-09-15T10:22:18.441Z,5.77
2018-09-15T10:24:46.809Z,5.70
2018-09-15T10:27:15.123Z,5.30
2018-09-15T10:29:43.448Z,5.53
2018-09-15T10:32:11.835Z,5.57
2018-09-15T10:34:40.142Z,4.80
2018-09-15T10:37:08.472Z,4.50
2018-09-15T10:39:37.007Z,5.10
2018-09-15T10:42:05.357Z,5.00
2018-09-15T10:44:33.659Z,4.40
2018-09-15T10:47:01.986Z,4.13
2018-09-15T10:49:30.328Z,4.50
2018-09-15T10:51:58.674Z,4.10
2018-09-15T10:54:26.986Z,3.73
2018-09-15T10:56:55.391Z,4.10
2018-09-15T10:59:23.707Z,4.03
2018-09-15T11:01:52.052Z,3.80
2018-09-15T11:04:20.413Z,4.23
2018-09-15T11:06:48.781Z,4.17
2018-09-15T11:09:17.101Z,3.70
2018-09-15T11:11:45.471Z,3.47
2018-09-15T11:14:13.785Z,3.40
2018-09-15T11:16:42.123Z,3.33
2018-09-15T11:19:10.466Z,3.80
2018-09-15T11:21:38.807Z,3.50
2018-09-15T11:24:07.140Z,3.50
2018-09-15T11:26:35.524Z,3.40
2018-09-15T11:29:03.897Z,3.70
2018-09-15T11:31:32.234Z,3.33
2018-09-15T11:34:00.570Z,3.80
2018-09-15T11:36:28.951Z,3.47
2018-09-15T11:38:57.266Z,3.20
2018-09-15T11:41:25.712Z,2.90
2018-09-15T11:43:54.128Z,2.83
2018-09-15T11:46:22.462Z,2.60
2018-09-15T11:48:50.794Z,3.17
2018-09-15T11:51:19.158Z,3.07
2018-09-15T11:53:47.646Z,3.43
2018-09-15T11:56:16.010Z,3.00
2018-09-15T11:58:44.373Z,3.07
2018-09-15T12:01:12.751Z,3.17
2018-09-15T12:03:41.117Z,3.40
2018-09-15T12:06:10.441Z,3.07
2018-09-15T12:08:38.900Z,3.63
2018-09-15T12:11:08.998Z,3.83
2018-09-15T12:13:37.456Z,4.17
2018-09-15T12:16:05.808Z,4.00
2018-09-15T12:18:34.175Z,4.40
2018-09-15T12:21:02.581Z,4.03
2018-09-15T12:23:31.065Z,4.40
2018-09-15T12:25:59.404Z,4.40
2018-09-15T12:28:28.892Z,4.90
2018-09-15T12:30:57.486Z,4.10
2018-09-15T12:33:25.987Z,3.70
2018-09-15T12:35:54.355Z,3.63
2018-09-15T12:38:22.749Z,3.13
2018-09-15T12:40:51.075Z,3.63
2018-09-15T12:43:19.483Z,3.60
2018-09-15T12:45:47.778Z,3.57
2018-09-15T12:48:16.161Z,3.80
2018-09-15T12:50:44.697Z,3.60
2018-09-15T12:53:13.059Z,3.53
2018-09-15T12:55:41.396Z,3.67
2018-09-15T12:58:09.860Z,3.50
2018-09-15T13:00:38.238Z,3.67
2018-09-15T13:03:06.622Z,3.20
2018-09-15T13:05:35.205Z,3.10
2018-09-15T13:08:03.611Z,3.00
2018-09-15T13:10:31.974Z,2.77
2018-09-15T13:13:00.369Z,2.97
2018-09-15T13:15:28.866Z,2.70
2018-09-15T13:17:57.130Z,2.93
2018-09-15T13:20:25.493Z,3.13
2018-09-15T13:22:53.844Z,2.80
2018-09-15T13:25:22.172Z,2.90
2018-09-15T13:27:50.578Z,3.20
2018-09-15T13:30:18.919Z,2.70
2018-09-15T13:32:47.324Z,3.23
2018-09-15T13:35:15.671Z,3.43
2018-09-15T13:37:44.115Z,2.87
2018-09-15T13:40:12.480Z,3.27
2018-09-15T13:42:40.820Z,2.70
2018-09-15T13:45:10.203Z,3.20
2018-09-15T13:47:38.539Z,3.30
2018-09-15T13:50:07.322Z,2.43
2018-09-15T13:52:35.682Z,3.00
2018-09-15T13:55:04.061Z,2.90
2018-09-15T13:57:32.482Z,2.87
2018-09-15T14:00:00.884Z,2.87
2018-09-15T14:02:29.227Z,2.83
2018-09-15T14:04:57.696Z,3.20
2018-09-15T14:07:25.981Z,2.27
2018-09-15T14:09:54.414Z,3.10
2018-09-15T14:12:22.823Z,2.47
2018-09-15T14:14:51.202Z,2.67
2018-09-15T14:17:19.581Z,2.23
2018-09-15T14:19:48.038Z,2.10
2018-09-15T14:22:16.531Z,2.30
2018-09-15T14:24:44.898Z,2.20
2018-09-15T14:27:13.242Z,2.40
2018-09-15T14:29:41.851Z,2.10
2018-09-15T14:32:10.256Z,2.00
2018-09-15T14:34:38.721Z,2.10
2018-09-15T14:37:07.149Z,2.00
2018-09-15T14:39:35.542Z,1.93
2018-09-15T14:42:03.963Z,2.13
2018-09-15T14:44:32.341Z,2.40
2018-09-15T14:47:01.079Z,3.10
2018-09-15T14:49:29.428Z,2.73
2018-09-15T14:51:57.757Z,2.90
2018-09-15T14:54:26.118Z,2.80
2018-09-15T14:56:54.477Z,2.40
2018-09-15T14:59:22.836Z,2.30
2018-09-15T15:01:51.188Z,2.17
2018-09-15T15:04:19.516Z,2.60
2018-09-15T15:06:47.876Z,2.60
2018-09-15T15:09:16.237Z,2.70
2018-09-15T15:11:44.633Z,2.40
2018-09-15T15:14:13.012Z,2.13
2018-09-15T15:16:41.342Z,1.90
2018-09-15T15:19:10.088Z,1.77
2018-09-15T15:21:38.511Z,1.60
2018-09-15T15:24:06.944Z,2.07
2018-09-15T15:26:35.411Z,2.17
2018-09-15T15:29:03.684Z,2.00
2018-09-15T15:31:32.161Z,2.13
2018-09-15T15:34:00.584Z,2.27
2018-09-15T15:36:28.932Z,2.40
2018-09-15T15:38:57.286Z,2.13
2018-09-15T15:41:25.649Z,2.97
2018-09-15T15:43:54.023Z,2.50
2018-09-15T15:46:22.390Z,2.20
2018-09-15T15:48:50.719Z,2.20
2018-09-15T15:51:19.092Z,2.10
2018-09-15T15:53:47.508Z,1.80
2018-09-15T15:56:16.402Z,1.87
2018-09-15T15:58:45.369Z,2.03
2018-09-15T16:01:13.868Z,1.90
2018-09-15T16:03:42.520Z,2.03
2018-09-15T16:06:11.003Z,1.80
2018-09-15T16:08:39.352Z,2.00
2018-09-15T16:11:07.791Z,2.00
2018-09-15T16:13:36.269Z,1.80
2018-09-15T16:16:04.703Z,2.20
2018-09-15T16:18:33.103Z,1.83
2018-09-15T16:21:01.447Z,1.97
2018-09-15T16:23:29.865Z,1.93
2018-09-15T16:25:58.236Z,1.90
2018-09-15T16:28:26.606Z,1.60
2018-09-15T16:30:54.934Z,1.83
2018-09-15T16:33:23.436Z,2.10
2018-09-15T16:35:51.759Z,2.20
2018-09-15T16:38:20.090Z,1.83
2018-09-15T16:40:48.463Z,2.00
2018-09-15T16:43:16.790Z,1.73
2018-09-15T16:45:46.222Z,1.77
2018-09-15T16:48:14.555Z,2.00
2018-09-15T16:50:42.892Z,2.10
2018-09-15T16:53:11.222Z,1.93
2018-09-15T16:55:39.594Z,2.23
2018-09-15T16:58:07.922Z,2.30
2018-09-15T17:00:36.419Z,2.03
2018-09-15T17:03:04.758Z,1.77
2018-09-15T17:05:33.122Z,2.20
2018-09-15T17:08:01.452Z,1.90
2018-09-15T17:10:29.815Z,1.90
2018-09-15T17:12:58.139Z,2.20
2018-09-15T17:15:26.483Z,2.00
2018-09-15T17:17:54.804Z,1.97
2018-09-15T17:20:23.151Z,1.80
2018-09-15T17:22:51.513Z,1.70
2018-09-15T17:25:19.902Z,1.70
2018-09-15T17:27:48.327Z,1.63
2018-09-15T17:30:16.666Z,1.97
2018-09-15T17:32:45.026Z,1.90
2018-09-15T17:35:13.482Z,1.80
2018-09-15T17:37:41.863Z,1.80
2018-09-15T17:40:10.261Z,1.70
2018-09-15T17:42:38.748Z,1.80
2018-09-15T17:45:07.155Z,2.00
2018-09-15T17:47:35.447Z,1.97
2018-09-15T17:50:03.870Z,2.40
2018-09-15T17:52:32.226Z,2.60
2018-09-15T17:55:00.641Z,2.43
2018-09-15T17:57:29.140Z,1.70
2018-09-15T17:59:57.475Z,1.57
2018-09-15T18:02:25.815Z,1.67
2018-09-15T18:04:54.139Z,2.00
2018-09-15T18:07:22.488Z,1.70
2018-09-15T18:09:50.938Z,1.67
2018-09-15T18:12:19.256Z,1.70
2018-09-15T18:14:47.640Z,1.57
2018-09-15T18:17:15.968Z,1.70
2018-09-15T18:19:44.279Z,1.70
2018-09-15T18:22:12.633Z,1.47
2018-09-15T18:24:40.980Z,1.70
2018-09-15T18:27:09.306Z,1.60
2018-09-15T18:29:37.785Z,1.77
2018-09-15T18:32:06.120Z,1.80
2018-09-15T18:34:34.444Z,1.80
2018-09-15T18:37:04.627Z,1.60
2018-09-15T18:39:32.948Z,1.93
2018-09-15T18:42:01.291Z,1.60
2018-09-15T18:44:29.670Z,1.70
2018-09-15T18:46:57.991Z,2.03
2018-09-15T18:49:26.297Z,1.70
2018-09-15T18:51:54.631Z,2.07
2018-09-15T18:54:22.983Z,1.60
2018-09-15T18:56:51.340Z,2.00
2018-09-15T18:59:19.710Z,1.73
2018-09-15T19:01:48.365Z,1.70
2018-09-15T19:04:16.686Z,1.87
2018-09-15T19:06:45.023Z,1.70
2018-09-15T19:09:13.351Z,2.00
2018-09-15T19:11:41.974Z,2.90
2018-09-15T19:14:10.420Z,2.00
2018-09-15T19:16:38.804Z,1.90
2018-09-15T19:19:07.167Z,2.10
2018-09-15T19:21:35.501Z,1.67
2018-09-15T19:24:03.839Z,2.00
2018-09-15T19:26:32.208Z,1.80
2018-09-15T19:29:00.583Z,2.07
2018-09-15T19:31:28.964Z,1.97
2018-09-15T19:33:57.291Z,1.97
2018-09-15T19:36:25.613Z,1.93
2018-09-15T19:38:54.026Z,2.03
2018-09-15T19:41:22.348Z,2.00
2018-09-15T19:43:50.714Z,2.07
2018-09-15T19:46:19.051Z,2.00
2018-09-15T19:48:47.774Z,2.17
2018-09-15T19:51:16.084Z,2.33
2018-09-15T19:53:44.588Z,2.33
2018-09-15T19:56:13.035Z,2.00
2018-09-15T19:58:41.369Z,2.20
2018-09-15T20:01:10.701Z,2.20
2018-09-15T20:03:40.159Z,2.50
2018-09-15T20:06:08.569Z,2.43
2018-09-15T20:08:37.859Z,2.53
2018-09-15T20:11:06.363Z,2.73
2018-09-15T20:13:34.781Z,2.43
2018-09-15T20:16:03.494Z,2.60
2018-09-15T20:18:30.849Z,2.43
2018-09-15T20:20:58.124Z,2.63
2018-09-15T20:23:26.463Z,2.50
2018-09-15T20:25:54.792Z,2.50
2018-09-15T20:28:23.139Z,1.90
2018-09-15T20:30:51.473Z,2.20
2018-09-15T20:33:19.972Z,2.57
2018-09-15T20:35:48.180Z,2.30
2018-09-15T20:38:16.538Z,2.57
2018-09-15T20:40:44.852Z,2.37
2018-09-15T20:43:13.203Z,2.37
2018-09-15T20:45:41.530Z,2.47
2018-09-15T20:48:09.866Z,2.20
2018-09-15T20:50:38.173Z,2.23
2018-09-15T20:53:06.588Z,2.37
2018-09-15T20:55:34.914Z,2.47
2018-09-15T20:58:03.238Z,2.13
2018-09-15T21:00:31.601Z,2.30
2018-09-15T21:03:00.058Z,2.30
2018-09-15T21:05:28.390Z,2.50
2018-09-15T21:07:56.709Z,2.50
2018-09-15T21:10:25.907Z,2.20
2018-09-15T21:12:54.236Z,2.43
2018-09-15T21:15:22.574Z,2.50
2018-09-15T21:17:50.886Z,2.70
2018-09-15T21:20:19.227Z,2.37
2018-09-15T21:22:47.538Z,2.50
2018-09-15T21:25:15.867Z,2.30
2018-09-15T21:27:44.220Z,2.40
2018-09-15T21:30:12.574Z,2.50
2018-09-15T21:32:40.898Z,2.30
2018-09-15T21:35:09.243Z,2.13
2018-09-15T21:37:37.550Z,2.37
2018-09-15T21:40:06.078Z,2.10
2018-09-15T21:42:34.418Z,2.60
2018-09-15T21:45:02.753Z,2.40
2018-09-15T21:47:31.223Z,2.50
2018-09-15T21:49:59.629Z,2.37
2018-09-15T21:52:27.991Z,2.43
2018-09-15T21:54:56.312Z,2.50
2018-09-15T21:57:24.636Z,2.50
2018-09-15T21:59:52.979Z,2.80
2018-09-15T22:02:22.869Z,2.77
2018-09-15T22:04:51.673Z,2.90
2018-09-15T22:07:20.099Z,2.70
2018-09-15T22:09:48.424Z,2.90
2018-09-15T22:12:16.772Z,3.00
2018-09-15T22:14:45.114Z,2.93
2018-09-15T22:17:13.434Z,2.77
2018-09-15T22:19:41.802Z,2.70
2018-09-15T22:22:10.150Z,2.87
2018-09-15T22:24:38.639Z,2.80
2018-09-15T22:27:07.008Z,2.60
2018-09-15T22:29:35.357Z,3.00
2018-09-15T22:32:03.705Z,3.00
2018-09-15T22:34:32.089Z,3.13
2018-09-15T22:37:00.461Z,3.00
2018-09-15T22:39:28.786Z,3.00
2018-09-15T22:41:57.137Z,2.80
2018-09-15T22:44:25.517Z,3.23
2018-09-15T22:46:53.880Z,2.70
2018-09-15T22:49:23.634Z,3.20
2018-09-15T22:51:51.986Z,3.37
2018-09-15T22:54:20.338Z,3.53
2018-09-15T22:56:48.701Z,3.37
2018-09-15T22:59:17.011Z,3.60
2018-09-15T23:01:45.388Z,3.17
2018-09-15T23:04:14.829Z,3.20
2018-09-15T23:06:43.195Z,3.13
2018-09-15T23:09:12.195Z,3.20
2018-09-15T23:11:40.572Z,3.30
2018-09-15T23:14:08.900Z,3.30
2018-09-15T23:16:37.273Z,3.17
2018-09-15T23:19:05.711Z,3.00
2018-09-15T23:21:34.022Z,3.27
2018-09-15T23:24:02.352Z,2.77
2018-09-15T23:26:30.690Z,2.97
2018-09-15T23:28:59.266Z,3.00
2018-09-15T23:31:27.601Z,2.80
2018-09-15T23:33:55.931Z,3.47
2018-09-15T23:36:24.303Z,2.90
2018-09-15T23:38:52.619Z,3.00
2018-09-15T23:41:20.974Z,2.67
2018-09-15T23:43:49.337Z,2.77
2018-09-15T23:46:17.678Z,3.20
2018-09-15T23:48:46.036Z,2.80
2018-09-15T23:51:14.392Z,2.87
2018-09-15T23:53:42.718Z,3.10
2018-09-15T23:56:11.067Z,2.90
2018-09-15T23:58:39.382Z,2.70
